Terminal Aerodrome Forecast
Issued by NWS Jackson, KY

Home | Current Version | Previous Version | Text Only | Print | Product List | Glossary On
Versions: 1 2 3 4 5 6 7 8 9 10 11 12 13 14 15 16 17
000
FTUS43 KJKL 252338
TAFJKL
TAF
KJKL 252338Z 2600/2624 VRB06KT P6SM SCT040 BKN250
     FM260400 VRB06KT 6SM -SN BR SCT020 OVC035
     FM260600 VRB06KT 1SM -SN BKN008 OVC020
     FM261100 33006KT 6SM -SHSN BR SCT008 BKN015 OVC035=

USA.gov is the U.S. government's official web portal to all federal, state and local government web resources and services.